createdAt,value
2024-01-15T00:00:45.589Z,35.15
2024-01-15T00:03:17.623Z,37.13
2024-01-15T00:06:10.319Z,36.58
2024-01-15T00:09:01.982Z,36.78
2024-01-15T00:11:52.221Z,37.17
2024-01-15T00:14:52.193Z,36.28
2024-01-15T00:17:44.513Z,34.05
2024-01-15T00:20:43.368Z,37.92
2024-01-15T00:23:36.257Z,36.13
2024-01-15T00:26:22.651Z,36.17
2024-01-15T00:29:13.348Z,37.72
2024-01-15T00:31:47.311Z,38.55
2024-01-15T00:34:36.713Z,36.33
2024-01-15T00:37:26.848Z,34.63
2024-01-15T00:40:11.014Z,34.33
2024-01-15T00:45:51.521Z,35.78
2024-01-15T00:48:43.318Z,37.63
2024-01-15T00:51:36.299Z,36.53
2024-01-15T00:54:28.198Z,34.67
2024-01-15T00:57:19.230Z,34.25
2024-01-15T01:00:09.863Z,33.92
2024-01-15T01:02:55.968Z,35.75
2024-01-15T01:05:56.402Z,38.00
2024-01-15T01:08:52.435Z,39.20
2024-01-15T01:11:52.442Z,37.53
2024-01-15T01:14:36.130Z,35.00
2024-01-15T01:17:18.561Z,37.22
2024-01-15T01:20:15.449Z,38.78
2024-01-15T01:23:11.167Z,34.92
2024-01-15T01:26:04.792Z,40.63
2024-01-15T01:28:58.173Z,38.50
2024-01-15T01:31:39.739Z,37.53
2024-01-15T01:34:16.152Z,36.10
2024-01-15T01:37:10.059Z,36.65
2024-01-15T01:40:01.933Z,37.50
2024-01-15T01:42:49.799Z,35.70
2024-01-15T01:45:52.686Z,39.85
2024-01-15T01:48:42.694Z,36.08
2024-01-15T01:51:13.826Z,35.40
2024-01-15T01:53:44.323Z,31.65
2024-01-15T01:56:33.084Z,34.30
2024-01-15T01:59:03.342Z,36.15
2024-01-15T02:01:36.352Z,31.02
2024-01-15T02:04:08.409Z,31.48
2024-01-15T02:06:43.337Z,25.92
2024-01-15T02:09:36.038Z,30.20
2024-01-15T02:12:30.253Z,32.83
2024-01-15T02:15:23.116Z,25.27
2024-01-15T02:18:30.454Z,32.38
2024-01-15T02:21:22.252Z,31.92
2024-01-15T02:24:14.998Z,36.17
2024-01-15T02:27:13.449Z,34.17
2024-01-15T02:29:52.470Z,31.88
2024-01-15T02:32:45.626Z,27.63
2024-01-15T02:35:28.825Z,28.45
2024-01-15T02:38:14.858Z,33.83
2024-01-15T02:41:06.280Z,32.05
2024-01-15T02:44:00.454Z,27.95
2024-01-15T02:47:06.317Z,30.17
2024-01-15T02:50:05.248Z,32.65
2024-01-15T02:53:06.324Z,27.52
2024-01-15T02:56:00.635Z,28.42
2024-01-15T02:59:02.841Z,26.98
2024-01-15T03:01:52.979Z,29.95
2024-01-15T03:04:48.665Z,25.73
2024-01-15T03:07:39.813Z,26.38
2024-01-15T03:10:32.156Z,31.35
2024-01-15T03:13:20.657Z,29.05
2024-01-15T03:16:15.158Z,25.98
2024-01-15T03:21:47.869Z,23.42
2024-01-15T03:24:44.012Z,26.92
2024-01-15T03:27:30.362Z,25.63
2024-01-15T03:30:16.915Z,22.35
2024-01-15T03:33:10.955Z,26.15
2024-01-15T03:35:59.593Z,26.33
2024-01-15T03:38:59.120Z,22.10
2024-01-15T03:41:53.652Z,26.85
2024-01-15T03:47:26.225Z,24.10
2024-01-15T03:49:56.346Z,26.77
2024-01-15T03:52:26.646Z,28.80
2024-01-15T03:54:57.039Z,30.95
2024-01-15T03:57:27.325Z,20.70
2024-01-15T03:59:58.304Z,26.08
2024-01-15T04:02:29.650Z,30.70
2024-01-15T04:05:01.436Z,27.17
2024-01-15T04:07:58.666Z,31.95
2024-01-15T04:10:50.420Z,27.73
2024-01-15T04:13:42.931Z,22.98
2024-01-15T04:16:39.628Z,28.40
2024-01-15T04:19:26.009Z,26.20
2024-01-15T04:22:22.200Z,26.88
2024-01-15T04:25:12.572Z,25.33
2024-01-15T04:27:59.003Z,27.13
2024-01-15T04:30:44.726Z,23.95
2024-01-15T04:33:36.607Z,24.63
2024-01-15T04:36:29.931Z,26.17
2024-01-15T04:39:25.208Z,25.23
2024-01-15T04:42:23.398Z,23.92
2024-01-15T04:45:14.499Z,26.15
2024-01-15T04:48:06.440Z,29.20
2024-01-15T04:50:55.964Z,28.30
2024-01-15T04:53:39.262Z,29.25
2024-01-15T04:56:30.155Z,32.10
2024-01-15T04:59:23.004Z,29.90
2024-01-15T05:02:14.763Z,32.28
2024-01-15T05:05:13.786Z,34.08
2024-01-15T05:08:08.758Z,29.67
2024-01-15T05:11:00.767Z,34.90
2024-01-15T05:13:56.012Z,31.08
2024-01-15T05:16:51.418Z,36.17
2024-01-15T05:19:52.008Z,35.58
2024-01-15T05:22:35.862Z,36.63
2024-01-15T05:25:11.744Z,35.72
2024-01-15T05:28:05.123Z,37.15
2024-01-15T05:30:59.738Z,35.35
2024-01-15T05:33:54.550Z,34.47
2024-01-15T05:36:45.323Z,38.50
2024-01-15T05:39:33.101Z,34.75
2024-01-15T05:42:26.377Z,35.03
2024-01-15T05:45:12.292Z,36.92
2024-01-15T05:48:01.260Z,32.13
2024-01-15T05:50:33.609Z,36.00
2024-01-15T05:53:02.196Z,38.40
2024-01-15T05:55:31.036Z,34.90
2024-01-15T05:58:02.007Z,35.63
2024-01-15T06:00:35.033Z,34.25
2024-01-15T06:03:07.576Z,33.72
2024-01-15T06:05:38.894Z,28.30
2024-01-15T06:08:30.075Z,35.20
2024-01-15T06:11:05.559Z,30.73
2024-01-15T06:13:35.130Z,28.13
2024-01-15T06:16:08.245Z,33.53
2024-01-15T06:18:40.466Z,27.10
2024-01-15T06:21:23.816Z,33.65
2024-01-15T06:24:14.703Z,34.70
2024-01-15T06:27:12.131Z,29.23
2024-01-15T06:30:04.580Z,33.45
2024-01-15T06:32:50.203Z,29.73
2024-01-15T06:35:56.093Z,35.33
2024-01-15T06:38:51.522Z,29.88
2024-01-15T06:41:36.789Z,32.67
2024-01-15T06:44:23.443Z,32.38
2024-01-15T06:47:13.507Z,31.40
2024-01-15T06:50:03.478Z,34.17
2024-01-15T06:53:00.932Z,28.60
2024-01-15T06:55:57.224Z,29.75
2024-01-15T06:58:39.706Z,25.75
2024-01-15T07:01:11.769Z,23.17
2024-01-15T07:03:40.367Z,28.60
2024-01-15T07:06:08.854Z,26.25
2024-01-15T07:08:38.555Z,25.10
2024-01-15T07:11:08.763Z,22.70
2024-01-15T07:13:57.953Z,27.10
2024-01-15T07:16:39.826Z,20.52
2024-01-15T07:19:28.333Z,15.93
2024-01-15T07:22:25.561Z,21.65
2024-01-15T07:25:23.614Z,24.17
2024-01-15T07:28:16.202Z,21.15
2024-01-15T07:31:09.386Z,20.35
2024-01-15T07:34:07.823Z,20.02
2024-01-15T07:36:53.814Z,20.80
2024-01-15T07:39:46.341Z,17.70
2024-01-15T07:42:44.779Z,17.73
2024-01-15T07:45:43.742Z,12.95
2024-01-15T07:48:37.712Z,14.43
2024-01-15T07:51:29.308Z,15.60
2024-01-15T07:54:27.313Z,11.90
2024-01-15T07:57:26.803Z,14.07
2024-01-15T08:00:17.139Z,11.52
2024-01-15T08:03:10.513Z,12.02
2024-01-15T08:06:03.859Z,10.50
2024-01-15T08:08:54.171Z,7.60
2024-01-15T08:11:39.100Z,8.85
2024-01-15T08:14:24.187Z,8.20
2024-01-15T08:17:23.805Z,9.95
2024-01-15T08:20:09.755Z,12.32
2024-01-15T08:23:03.629Z,10.43
2024-01-15T08:26:03.669Z,8.00
2024-01-15T08:29:02.842Z,6.65
2024-01-15T08:32:02.019Z,7.18
2024-01-15T08:34:37.526Z,7.35
2024-01-15T08:37:31.129Z,7.47
2024-01-15T08:40:15.266Z,8.37
2024-01-15T08:45:55.277Z,10.68
2024-01-15T08:48:46.124Z,9.25
2024-01-15T08:51:43.173Z,10.23
2024-01-15T08:54:25.329Z,6.90
2024-01-15T08:57:16.846Z,12.32
2024-01-15T09:00:04.706Z,13.23
2024-01-15T09:03:01.443Z,14.52
2024-01-15T09:05:46.960Z,15.90
2024-01-15T09:08:41.144Z,15.32
2024-01-15T09:11:43.302Z,15.20
2024-01-15T09:14:33.598Z,14.13
2024-01-15T09:17:28.795Z,16.77
2024-01-15T09:20:11.759Z,12.55
2024-01-15T09:22:59.168Z,14.50
2024-01-15T09:25:47.834Z,15.15
2024-01-15T09:28:36.480Z,16.05
2024-01-15T09:31:24.605Z,14.02
2024-01-15T09:34:15.645Z,14.98
2024-01-15T09:37:07.493Z,13.95
2024-01-15T09:39:57.704Z,12.77
2024-01-15T09:42:45.126Z,15.18
2024-01-15T09:45:36.504Z,15.07
2024-01-15T09:48:27.370Z,17.13
2024-01-15T09:51:16.280Z,15.32
2024-01-15T09:54:09.570Z,14.68
2024-01-15T09:57:03.390Z,15.45
2024-01-15T09:59:44.676Z,16.25
2024-01-15T10:02:34.201Z,17.30
2024-01-15T10:05:20.697Z,16.90
2024-01-15T10:08:11.848Z,21.00
2024-01-15T10:11:06.497Z,18.30
2024-01-15T10:13:57.756Z,20.10
2024-01-15T10:16:53.946Z,18.83
2024-01-15T10:19:50.448Z,21.15
2024-01-15T10:22:44.235Z,17.98
2024-01-15T10:25:31.966Z,16.85
2024-01-15T10:28:24.767Z,16.75
2024-01-15T10:31:18.992Z,17.45
2024-01-15T10:34:09.236Z,20.40
2024-01-15T10:37:03.705Z,21.42
2024-01-15T10:39:59.309Z,21.60
2024-01-15T10:42:56.893Z,20.70
2024-01-15T10:45:53.059Z,20.30
2024-01-15T10:48:46.138Z,20.95
2024-01-15T10:51:38.666Z,18.08
2024-01-15T10:54:33.702Z,17.00
2024-01-15T10:57:21.164Z,22.25
2024-01-15T11:00:14.326Z,20.08
2024-01-15T11:03:05.604Z,18.15
2024-01-15T11:05:56.474Z,22.70
2024-01-15T11:08:45.150Z,25.60
2024-01-15T11:11:29.340Z,23.63
2024-01-15T11:17:23.156Z,19.63
2024-01-15T11:20:15.256Z,22.35
2024-01-15T11:23:13.657Z,21.52
2024-01-15T11:26:16.749Z,18.80
2024-01-15T11:29:12.344Z,25.13
2024-01-15T11:32:12.705Z,22.38
2024-01-15T11:35:17.415Z,25.15
2024-01-15T11:38:26.048Z,27.55
2024-01-15T11:41:32.683Z,25.58
2024-01-15T11:44:23.025Z,26.05
2024-01-15T11:47:23.637Z,22.52
2024-01-15T11:50:32.742Z,25.48
2024-01-15T11:53:33.960Z,18.15
2024-01-15T11:56:34.921Z,22.75
2024-01-15T11:59:25.182Z,24.02
2024-01-15T12:02:16.039Z,24.30
2024-01-15T12:04:44.265Z,22.90
2024-01-15T12:07:37.445Z,21.75
2024-01-15T12:10:32.923Z,22.52
2024-01-15T12:13:32.268Z,20.65
2024-01-15T12:16:30.329Z,22.60
2024-01-15T12:19:20.673Z,22.25
2024-01-15T12:22:09.068Z,22.33
2024-01-15T12:25:03.449Z,19.42
2024-01-15T12:27:49.096Z,20.02
2024-01-15T12:30:47.210Z,16.73
2024-01-15T12:33:47.650Z,23.60
2024-01-15T12:36:46.431Z,15.52
2024-01-15T12:39:40.781Z,19.50
2024-01-15T12:42:36.047Z,20.10
2024-01-15T12:45:30.788Z,16.85
2024-01-15T12:48:23.495Z,18.08
2024-01-15T12:51:19.052Z,20.25
2024-01-15T12:54:14.558Z,19.98
2024-01-15T12:57:01.709Z,18.35
2024-01-15T12:59:46.298Z,20.65
2024-01-15T13:02:33.327Z,21.70
2024-01-15T13:05:28.720Z,22.58
2024-01-15T13:08:13.464Z,20.90
2024-01-15T13:11:08.119Z,19.90
2024-01-15T13:14:03.423Z,21.00
2024-01-15T13:17:01.586Z,17.77
2024-01-15T13:19:39.256Z,20.30
2024-01-15T13:22:36.581Z,21.63
2024-01-15T13:25:25.539Z,20.02
2024-01-15T13:28:20.149Z,20.33
2024-01-15T13:31:21.854Z,19.67
2024-01-15T13:34:19.048Z,19.73
2024-01-15T13:37:11.229Z,22.30
2024-01-15T13:40:04.390Z,18.52
2024-01-15T13:42:51.838Z,20.17
2024-01-15T13:45:46.195Z,22.25
2024-01-15T13:48:31.888Z,23.30
2024-01-15T13:51:15.212Z,24.08
2024-01-15T13:54:02.808Z,22.30
2024-01-15T13:56:55.291Z,23.23
2024-01-15T13:59:49.965Z,23.08
2024-01-15T14:02:21.712Z,24.58
2024-01-15T14:04:53.140Z,25.90
2024-01-15T14:07:24.504Z,23.92
2024-01-15T14:09:53.606Z,28.15
2024-01-15T14:12:37.015Z,22.73
2024-01-15T14:15:08.686Z,22.95
2024-01-15T14:17:39.287Z,25.40
2024-01-15T14:20:36.605Z,22.70
2024-01-15T14:23:15.644Z,27.50
2024-01-15T14:25:48.440Z,19.70
2024-01-15T14:28:19.527Z,27.08
2024-01-15T14:31:03.113Z,33.85
2024-01-15T14:33:40.292Z,30.23
2024-01-15T14:36:23.035Z,24.95
2024-01-15T14:39:06.611Z,29.48
2024-01-15T14:41:58.312Z,29.58
2024-01-15T14:44:53.733Z,27.20
2024-01-15T14:47:38.984Z,25.33
2024-01-15T14:50:25.543Z,25.98
2024-01-15T14:53:18.967Z,28.42
2024-01-15T14:56:25.546Z,26.80
2024-01-15T14:59:15.928Z,28.17
2024-01-15T15:02:12.449Z,24.55
2024-01-15T15:05:07.095Z,21.85
2024-01-15T15:07:55.600Z,28.30
2024-01-15T15:10:39.607Z,17.83
2024-01-15T15:13:38.168Z,22.98
2024-01-15T15:16:46.041Z,29.00
2024-01-15T15:19:34.978Z,24.67
2024-01-15T15:22:26.206Z,26.13
2024-01-15T15:25:22.448Z,27.77
2024-01-15T15:28:23.259Z,21.80
2024-01-15T15:31:17.646Z,26.55
2024-01-15T15:34:17.964Z,26.63
2024-01-15T15:37:14.569Z,24.92
2024-01-15T15:40:11.661Z,22.95
2024-01-15T15:43:06.660Z,20.00
2024-01-15T15:45:56.389Z,23.83
2024-01-15T15:48:47.253Z,26.60
2024-01-15T15:51:36.469Z,23.60
2024-01-15T15:54:29.126Z,27.55
2024-01-15T15:57:16.076Z,24.33
2024-01-15T16:00:03.169Z,27.05
2024-01-15T16:02:49.062Z,26.08
2024-01-15T16:05:45.766Z,26.92
2024-01-15T16:08:44.233Z,28.45
2024-01-15T16:11:54.372Z,24.50
2024-01-15T16:14:45.885Z,24.25
2024-01-15T16:23:16.204Z,27.63
2024-01-15T16:23:32.892Z,26.23
2024-01-15T16:24:13.388Z,24.48
2024-01-15T16:29:56.300Z,26.27
2024-01-15T16:32:32.432Z,23.60
2024-01-15T16:35:26.462Z,25.83
2024-01-15T16:38:12.796Z,23.77
2024-01-15T16:41:02.188Z,24.02
2024-01-15T16:43:50.806Z,23.83
2024-01-15T16:46:33.959Z,26.05
2024-01-15T16:49:25.721Z,26.77
2024-01-15T16:52:20.715Z,22.65
2024-01-15T16:55:14.245Z,26.38
2024-01-15T16:57:43.130Z,33.95
2024-01-15T17:00:40.074Z,29.38
2024-01-15T17:03:11.043Z,28.05
2024-01-15T17:06:02.940Z,27.30
2024-01-15T17:08:48.623Z,30.23
2024-01-15T17:11:44.620Z,30.50
2024-01-15T17:14:31.798Z,30.00
2024-01-15T17:17:27.200Z,28.38
2024-01-15T17:20:15.105Z,30.02
2024-01-15T17:23:07.061Z,30.13
2024-01-15T17:25:40.112Z,27.92
2024-01-15T17:31:46.712Z,25.00
2024-01-15T17:34:46.654Z,26.77
2024-01-15T17:37:35.065Z,26.55
2024-01-15T17:40:28.629Z,21.70
2024-01-15T17:43:17.323Z,26.17
2024-01-15T17:46:08.081Z,24.70
2024-01-15T17:48:49.649Z,26.33
2024-01-15T17:51:45.166Z,31.33
2024-01-15T17:54:32.051Z,30.67
2024-01-15T17:57:16.730Z,36.20
2024-01-15T18:00:04.883Z,40.95
2024-01-15T18:02:52.357Z,46.28
2024-01-15T18:05:44.624Z,38.53
2024-01-15T18:08:33.551Z,33.10
2024-01-15T18:11:16.928Z,39.40
2024-01-15T18:14:12.855Z,37.05
2024-01-15T18:17:09.007Z,35.53
2024-01-15T18:20:03.788Z,34.40
2024-01-15T18:22:51.467Z,31.70
2024-01-15T18:25:55.999Z,31.45
2024-01-15T18:28:39.088Z,30.60
2024-01-15T18:31:37.103Z,29.00
2024-01-15T18:34:26.083Z,32.40
2024-01-15T18:37:17.586Z,33.42
2024-01-15T18:40:06.166Z,31.95
2024-01-15T18:42:57.996Z,31.58
2024-01-15T18:45:49.445Z,31.33
2024-01-15T18:48:21.417Z,32.85
2024-01-15T18:51:02.900Z,29.92
2024-01-15T18:53:54.323Z,31.83
2024-01-15T18:56:45.753Z,27.60
2024-01-15T18:59:46.941Z,28.42
2024-01-15T19:02:17.363Z,28.15
2024-01-15T19:05:15.646Z,28.52
2024-01-15T19:07:57.128Z,30.33
2024-01-15T19:10:48.834Z,29.75
2024-01-15T19:13:44.044Z,29.73
2024-01-15T19:16:45.458Z,30.00
2024-01-15T19:19:38.374Z,30.80
2024-01-15T19:22:37.145Z,27.73
2024-01-15T19:25:35.893Z,29.42
2024-01-15T19:28:32.297Z,27.83
2024-01-15T19:31:26.272Z,30.38
2024-01-15T19:34:26.325Z,30.23
2024-01-15T19:37:21.713Z,30.45
2024-01-15T19:40:16.501Z,28.10
2024-01-15T19:43:09.139Z,28.92
2024-01-15T19:45:54.170Z,25.30
2024-01-15T19:48:47.844Z,27.33
2024-01-15T19:51:46.224Z,28.83
2024-01-15T19:54:40.790Z,28.10
2024-01-15T20:00:18.548Z,26.60
2024-01-15T20:03:13.310Z,27.48
2024-01-15T20:06:06.511Z,28.30
2024-01-15T20:09:00.523Z,24.83
2024-01-15T20:11:56.459Z,27.05
2024-01-15T20:14:53.574Z,27.67
2024-01-15T20:17:46.177Z,24.27
2024-01-15T20:20:36.777Z,27.58
2024-01-15T20:23:36.825Z,23.33
2024-01-15T20:26:32.507Z,25.45
2024-01-15T20:29:26.549Z,26.77
2024-01-15T20:32:18.827Z,28.65
2024-01-15T20:35:11.630Z,23.55
2024-01-15T20:38:05.496Z,24.98
2024-01-15T20:40:56.115Z,26.05
2024-01-15T20:43:52.316Z,23.73
2024-01-15T20:46:48.169Z,24.92
2024-01-15T20:49:36.720Z,26.38
2024-01-15T20:52:25.668Z,25.73
2024-01-15T20:55:17.226Z,26.88
2024-01-15T20:58:13.407Z,26.90
2024-01-15T21:01:12.766Z,25.15
2024-01-15T21:03:56.458Z,25.08
2024-01-15T21:06:46.636Z,24.75
2024-01-15T21:09:28.819Z,21.70
2024-01-15T21:12:26.705Z,23.80
2024-01-15T21:15:16.355Z,21.95
2024-01-15T21:17:56.835Z,20.77
2024-01-15T21:20:42.466Z,21.08
2024-01-15T21:23:23.362Z,20.65
2024-01-15T21:26:20.162Z,21.27
2024-01-15T21:29:15.184Z,17.83
2024-01-15T21:32:06.382Z,20.65
2024-01-15T21:35:01.733Z,18.63
2024-01-15T21:37:49.889Z,18.35
2024-01-15T21:40:42.045Z,15.88
2024-01-15T21:43:36.788Z,16.35
2024-01-15T21:46:25.747Z,17.85
2024-01-15T21:49:16.592Z,15.90
2024-01-15T21:52:19.131Z,13.98
2024-01-15T21:55:13.392Z,14.10
2024-01-15T21:58:15.717Z,15.20
2024-01-15T22:01:00.474Z,15.57
2024-01-15T22:03:56.958Z,13.35
2024-01-15T22:06:42.769Z,12.75
2024-01-15T22:09:49.916Z,12.43
2024-01-15T22:12:18.423Z,10.52
2024-01-15T22:15:06.729Z,12.23
2024-01-15T22:17:56.855Z,10.93
2024-01-15T22:20:46.302Z,13.20
2024-01-15T22:23:39.373Z,11.30
2024-01-15T22:26:39.062Z,12.27
2024-01-15T22:29:23.771Z,12.32
2024-01-15T22:32:07.181Z,12.05
2024-01-15T22:35:04.987Z,11.18
2024-01-15T22:38:00.462Z,11.10
2024-01-15T22:40:56.697Z,10.23
2024-01-15T22:43:53.469Z,9.15
2024-01-15T22:46:40.880Z,9.98
2024-01-15T22:49:32.920Z,9.00
2024-01-15T22:52:24.065Z,7.85
2024-01-15T22:55:24.459Z,7.97
2024-01-15T22:58:20.509Z,9.00
2024-01-15T23:01:15.278Z,8.32
2024-01-15T23:04:01.254Z,7.80
2024-01-15T23:06:38.778Z,9.52
2024-01-15T23:09:35.404Z,10.50
2024-01-15T23:12:05.277Z,9.20
2024-01-15T23:15:00.006Z,9.65
2024-01-15T23:17:51.687Z,8.15
2024-01-15T23:20:47.813Z,7.72
2024-01-15T23:23:42.202Z,7.78
2024-01-15T23:26:25.878Z,9.43
2024-01-15T23:29:28.926Z,9.05
2024-01-15T23:32:20.863Z,6.15
2024-01-15T23:35:16.071Z,7.78
2024-01-15T23:38:14.666Z,7.88
2024-01-15T23:41:06.779Z,8.05
2024-01-15T23:43:55.200Z,6.70
2024-01-15T23:46:40.829Z,7.50
2024-01-15T23:49:35.899Z,6.05
2024-01-15T23:52:25.002Z,6.70
2024-01-15T23:55:16.306Z,5.32
2024-01-15T23:58:02.423Z,5.88
